createdAt,value
2019-03-21T00:02:00.741Z,46.40
2019-03-21T00:04:33.000Z,24.32
2019-03-21T00:07:03.884Z,19.75
2019-03-21T00:09:37.280Z,18.27
2019-03-21T00:12:09.288Z,20.37
2019-03-21T00:15:01.683Z,19.92
2019-03-21T00:17:38.480Z,18.17
2019-03-21T00:20:12.118Z,18.00
2019-03-21T00:22:43.962Z,22.30
2019-03-21T00:25:17.298Z,25.35
2019-03-21T00:27:47.735Z,27.07
2019-03-21T00:30:20.919Z,26.20
2019-03-21T00:32:51.769Z,32.95
2019-03-21T00:35:22.907Z,30.68
2019-03-21T00:37:54.356Z,34.67
2019-03-21T00:40:30.715Z,27.07
2019-03-21T00:43:03.402Z,30.75
2019-03-21T00:45:33.920Z,27.77
2019-03-21T00:48:06.649Z,37.17
2019-03-21T00:50:37.126Z,26.62
2019-03-21T00:53:08.674Z,29.85
2019-03-21T00:55:42.088Z,29.80
2019-03-21T00:58:12.585Z,28.80
2019-03-21T01:00:46.404Z,27.62
2019-03-21T01:03:18.674Z,25.12
2019-03-21T01:05:49.406Z,25.85
2019-03-21T01:08:20.239Z,31.85
2019-03-21T01:10:53.230Z,27.80
2019-03-21T01:13:26.316Z,27.22
2019-03-21T01:15:56.947Z,32.50
2019-03-21T01:18:27.879Z,31.77
2019-03-21T01:20:58.510Z,31.07
2019-03-21T01:23:29.794Z,29.12
2019-03-21T01:26:03.560Z,28.32
2019-03-21T01:28:34.426Z,27.10
2019-03-21T01:31:05.157Z,31.68
2019-03-21T01:33:35.759Z,29.40
2019-03-21T01:36:08.231Z,26.93
2019-03-21T01:38:38.441Z,28.38
2019-03-21T01:41:16.866Z,29.32
2019-03-21T01:43:47.289Z,34.35
2019-03-21T01:46:22.940Z,33.65
2019-03-21T01:48:53.876Z,31.07
2019-03-21T01:51:24.718Z,32.90
2019-03-21T01:53:56.260Z,32.75
2019-03-21T01:56:28.530Z,37.15
2019-03-21T01:58:58.742Z,36.70
2019-03-21T02:01:29.381Z,37.20
2019-03-21T02:04:01.136Z,33.20
2019-03-21T02:06:33.405Z,37.38
2019-03-21T02:09:06.586Z,47.93
2019-03-21T02:11:38.775Z,37.83
2019-03-21T02:14:09.186Z,37.83
2019-03-21T02:16:40.538Z,36.58
2019-03-21T02:19:11.153Z,33.67
2019-03-21T02:21:41.854Z,34.10
2019-03-21T02:24:13.536Z,32.40
2019-03-21T02:26:47.397Z,35.23
2019-03-21T02:29:17.893Z,35.40
2019-03-21T02:31:48.613Z,32.48
2019-03-21T02:34:19.246Z,38.80
2019-03-21T02:36:49.875Z,36.75
2019-03-21T02:39:20.615Z,40.48
2019-03-21T02:41:51.441Z,39.35
2019-03-21T02:44:22.287Z,36.20
2019-03-21T02:46:54.066Z,31.20
2019-03-21T02:49:26.002Z,33.48
2019-03-21T02:51:56.620Z,35.05
2019-03-21T02:54:27.356Z,34.00
2019-03-21T02:56:58.598Z,38.95
2019-03-21T02:59:29.140Z,39.78
2019-03-21T03:01:59.859Z,35.68
2019-03-21T03:04:30.594Z,38.88
2019-03-21T03:07:01.442Z,39.18
2019-03-21T03:09:32.880Z,38.50
2019-03-21T03:12:03.505Z,40.55
2019-03-21T03:14:34.238Z,41.40
2019-03-21T03:17:04.972Z,41.42
2019-03-21T03:19:35.710Z,43.42
2019-03-21T03:22:06.027Z,42.75
2019-03-21T03:24:36.555Z,42.30
2019-03-21T03:27:06.987Z,42.05
2019-03-21T03:29:38.059Z,41.88
2019-03-21T03:32:08.930Z,42.25
2019-03-21T03:34:39.598Z,46.15
2019-03-21T03:37:10.120Z,45.60
2019-03-21T03:39:41.578Z,42.00
2019-03-21T03:42:12.094Z,45.20
2019-03-21T03:44:44.075Z,45.25
2019-03-21T03:47:14.374Z,44.40
2019-03-21T03:49:45.211Z,48.83
2019-03-21T03:52:16.865Z,44.77
2019-03-21T03:54:47.289Z,41.90
2019-03-21T03:57:18.627Z,46.33
2019-03-21T03:59:49.160Z,51.18
2019-03-21T04:02:20.099Z,49.48
2019-03-21T04:04:51.758Z,49.13
2019-03-21T04:07:22.489Z,47.25
2019-03-21T04:09:55.984Z,44.85
2019-03-21T04:12:28.362Z,45.00
2019-03-21T04:14:58.789Z,46.98
2019-03-21T04:17:30.232Z,45.10
2019-03-21T04:20:00.570Z,50.08
2019-03-21T04:22:31.178Z,49.67
2019-03-21T04:25:04.784Z,54.93
2019-03-21T04:27:35.417Z,41.23
2019-03-21T04:30:09.129Z,45.75
2019-03-21T04:32:41.076Z,39.95
2019-03-21T04:35:13.356Z,42.93
2019-03-21T04:37:44.694Z,47.03
2019-03-21T04:40:17.195Z,48.83
2019-03-21T04:42:47.506Z,37.28
2019-03-21T04:45:23.136Z,43.73
2019-03-21T04:47:53.563Z,37.35
2019-03-21T04:50:35.353Z,43.63
2019-03-21T04:53:06.094Z,45.55
2019-03-21T04:55:37.538Z,37.98
2019-03-21T04:58:08.473Z,36.80
2019-03-21T05:00:43.559Z,34.58
2019-03-21T05:03:16.591Z,33.35
2019-03-21T05:05:47.331Z,35.90
2019-03-21T05:08:18.712Z,32.13
2019-03-21T05:10:50.534Z,32.55
2019-03-21T05:13:21.366Z,30.60
2019-03-21T05:15:53.386Z,30.17
2019-03-21T05:18:32.456Z,40.25
2019-03-21T05:21:04.809Z,33.28
2019-03-21T05:23:35.252Z,35.85
2019-03-21T05:26:07.935Z,30.35
2019-03-21T05:28:38.869Z,30.72
2019-03-21T05:31:28.449Z,24.37
2019-03-21T05:33:58.820Z,31.70
2019-03-21T05:36:29.702Z,30.30
2019-03-21T05:39:00.544Z,26.62
2019-03-21T05:41:32.705Z,27.05
2019-03-21T05:44:27.240Z,27.98
2019-03-21T05:46:58.171Z,24.82
2019-03-21T05:49:28.674Z,25.05
2019-03-21T05:52:00.311Z,25.05
2019-03-21T05:54:30.634Z,22.52
2019-03-21T05:57:01.152Z,24.57
2019-03-21T05:59:31.648Z,27.60
2019-03-21T06:02:03.938Z,26.05
2019-03-21T06:04:34.427Z,42.40
2019-03-21T06:07:14.230Z,29.95
2019-03-21T06:09:45.580Z,23.40
2019-03-21T06:12:16.209Z,25.52
2019-03-21T06:14:52.986Z,24.50
2019-03-21T06:17:23.720Z,35.63
2019-03-21T06:20:21.823Z,35.92
2019-03-21T06:22:56.416Z,34.35
2019-03-21T06:25:47.723Z,28.38
2019-03-21T06:28:18.311Z,35.05
2019-03-21T06:30:49.802Z,28.17
2019-03-21T06:33:20.234Z,28.90
2019-03-21T06:35:54.433Z,33.35
2019-03-21T06:38:24.970Z,31.75
2019-03-21T06:40:56.523Z,29.30
2019-03-21T06:43:28.677Z,30.15
2019-03-21T06:46:00.899Z,19.98
2019-03-21T06:48:32.304Z,27.37
2019-03-21T06:51:02.732Z,26.35
2019-03-21T06:53:34.178Z,26.40
2019-03-21T06:56:04.661Z,38.65
2019-03-21T06:58:35.444Z,24.50
2019-03-21T07:01:06.318Z,29.80
2019-03-21T07:03:37.578Z,21.93
2019-03-21T07:06:08.354Z,25.40
2019-03-21T07:08:39.906Z,27.07
2019-03-21T07:11:10.779Z,20.40
2019-03-21T07:13:41.439Z,24.92
2019-03-21T07:16:12.202Z,13.10
2019-03-21T07:18:43.387Z,13.65
2019-03-21T07:21:13.777Z,17.15
2019-03-21T07:23:44.349Z,25.82
2019-03-21T07:26:14.831Z,28.32
2019-03-21T07:28:46.997Z,26.68
2019-03-21T07:31:17.729Z,30.05
2019-03-21T07:33:48.152Z,31.60
2019-03-21T07:36:18.887Z,24.43
2019-03-21T07:38:49.618Z,25.40
2019-03-21T07:41:21.781Z,18.98
2019-03-21T07:43:52.114Z,20.82
2019-03-21T07:46:22.883Z,20.68
2019-03-21T07:48:53.477Z,21.12
2019-03-21T07:51:24.510Z,11.68
2019-03-21T07:53:55.249Z,15.58
2019-03-21T07:56:25.705Z,14.50
2019-03-21T07:58:57.826Z,7.80
2019-03-21T08:01:28.257Z,13.58
2019-03-21T08:03:58.795Z,13.05
2019-03-21T08:06:30.189Z,11.43
2019-03-21T08:12:41.504Z,13.88
2019-03-21T08:15:16.145Z,9.43
2019-03-21T08:17:49.729Z,12.58
2019-03-21T08:20:21.183Z,15.63
2019-03-21T08:22:52.419Z,14.45
2019-03-21T08:25:24.180Z,13.80
2019-03-21T08:27:55.315Z,13.90
2019-03-21T08:30:29.233Z,18.37
2019-03-21T08:35:32.173Z,16.23
2019-03-21T08:38:04.502Z,15.35
2019-03-21T08:40:35.701Z,14.30
2019-03-21T08:43:06.269Z,18.45
2019-03-21T08:45:37.106Z,16.23
2019-03-21T08:48:07.338Z,22.10
2019-03-21T08:50:40.306Z,13.88
2019-03-21T08:53:10.837Z,14.05
2019-03-21T08:55:42.284Z,20.62
2019-03-21T08:58:14.359Z,17.92
2019-03-21T09:00:47.069Z,13.68
2019-03-21T09:03:18.886Z,13.68
2019-03-21T09:05:49.418Z,19.67
2019-03-21T09:08:20.046Z,13.58
2019-03-21T09:10:51.497Z,14.05
2019-03-21T09:13:23.087Z,19.80
2019-03-21T09:15:53.886Z,17.82
2019-03-21T09:18:25.023Z,19.45
2019-03-21T09:20:55.611Z,23.30
2019-03-21T09:23:27.367Z,12.55
2019-03-21T09:25:58.251Z,14.60
2019-03-21T09:28:30.617Z,21.48
2019-03-21T09:31:01.450Z,14.65
2019-03-21T09:33:33.122Z,14.40
2019-03-21T09:36:03.636Z,14.78
2019-03-21T09:38:36.317Z,22.22
2019-03-21T09:43:39.701Z,16.87
2019-03-21T09:46:14.547Z,23.65
2019-03-21T09:48:45.300Z,13.90
2019-03-21T09:51:16.530Z,15.48
2019-03-21T09:53:48.395Z,17.87
2019-03-21T09:56:23.876Z,15.95
2019-03-21T09:58:55.951Z,14.40
2019-03-21T10:01:27.150Z,17.27
2019-03-21T10:03:59.651Z,15.25
2019-03-21T10:06:31.075Z,19.90
2019-03-21T10:24:18.715Z,27.22
2019-03-21T10:26:49.730Z,22.85
2019-03-21T10:29:25.773Z,20.75
2019-03-21T10:31:58.580Z,22.50
2019-03-21T10:34:30.533Z,19.92
2019-03-21T10:37:01.269Z,26.73
2019-03-21T10:39:34.987Z,19.73
2019-03-21T10:42:05.645Z,21.90
2019-03-21T10:44:38.047Z,22.58
2019-03-21T10:47:11.229Z,24.70
2019-03-21T10:49:43.639Z,16.17
2019-03-21T10:52:14.224Z,24.75
2019-03-21T10:54:45.510Z,24.23
2019-03-21T10:57:18.122Z,30.80
2019-03-21T10:59:48.813Z,20.00
2019-03-21T11:02:19.182Z,14.93
2019-03-21T11:04:50.177Z,16.55
2019-03-21T11:07:21.331Z,11.57
2019-03-21T11:09:52.598Z,18.70
2019-03-21T11:12:23.432Z,19.32
2019-03-21T11:14:54.140Z,24.85
2019-03-21T11:17:26.401Z,16.12
2019-03-21T11:19:57.136Z,16.82
2019-03-21T11:22:27.764Z,14.68
2019-03-21T11:24:58.603Z,14.80
2019-03-21T11:27:30.158Z,14.28
2019-03-21T11:30:02.319Z,17.80
2019-03-21T11:32:32.694Z,17.57
2019-03-21T11:35:08.170Z,22.77
2019-03-21T11:37:40.660Z,21.65
2019-03-21T11:40:11.633Z,16.35
2019-03-21T11:42:42.241Z,25.15
2019-03-21T11:45:15.754Z,23.12
2019-03-21T11:47:46.678Z,20.23
2019-03-21T11:50:17.915Z,22.40
2019-03-21T11:52:49.054Z,21.35
2019-03-21T11:55:20.113Z,21.95
2019-03-21T11:57:52.349Z,22.85
2019-03-21T12:00:23.192Z,24.77
2019-03-21T12:02:54.643Z,21.77
2019-03-21T12:05:25.823Z,26.07
2019-03-21T12:07:56.487Z,19.27
2019-03-21T12:10:27.282Z,18.60
2019-03-21T12:13:00.440Z,14.47
2019-03-21T12:15:31.360Z,23.77
2019-03-21T12:18:03.303Z,19.23
2019-03-21T12:20:34.684Z,18.20
2019-03-21T12:23:05.315Z,22.25
2019-03-21T12:25:36.558Z,27.62
2019-03-21T12:28:07.911Z,23.90
2019-03-21T12:30:39.628Z,27.58
2019-03-21T12:33:09.990Z,29.52
2019-03-21T12:35:41.547Z,20.32
2019-03-21T12:38:12.103Z,26.37
2019-03-21T12:40:43.511Z,24.92
2019-03-21T12:43:14.246Z,16.87
2019-03-21T12:45:45.097Z,34.10
2019-03-21T12:48:15.928Z,21.68
2019-03-21T12:50:48.389Z,27.35
2019-03-21T12:53:19.225Z,26.68
2019-03-21T12:55:51.806Z,28.95
2019-03-21T12:58:22.633Z,35.58
2019-03-21T13:00:55.358Z,35.85
2019-03-21T13:03:26.772Z,36.65
2019-03-21T13:05:57.279Z,45.70
2019-03-21T13:08:33.723Z,39.65
2019-03-21T13:11:01.236Z,41.20
2019-03-21T13:13:31.622Z,38.90
2019-03-21T13:16:02.266Z,33.65
2019-03-21T13:18:33.203Z,28.23
2019-03-21T13:21:03.940Z,31.73
2019-03-21T13:23:34.573Z,31.87
2019-03-21T13:26:05.301Z,38.15
2019-03-21T13:28:36.138Z,20.32
2019-03-21T13:31:07.772Z,20.55
2019-03-21T13:33:38.526Z,22.98
2019-03-21T13:36:09.165Z,21.97
2019-03-21T13:38:39.992Z,34.65
2019-03-21T13:41:10.726Z,25.82
2019-03-21T13:43:41.474Z,37.58
2019-03-21T13:46:12.288Z,27.98
2019-03-21T13:48:43.227Z,27.95
2019-03-21T13:51:16.311Z,26.00
2019-03-21T13:53:47.981Z,32.13
2019-03-21T13:56:18.600Z,26.60
2019-03-21T13:58:49.473Z,43.05
2019-03-21T14:01:21.770Z,32.48
2019-03-21T14:03:54.694Z,30.32
2019-03-21T14:06:25.931Z,25.57
2019-03-21T14:08:56.793Z,34.92
2019-03-21T14:11:29.663Z,42.67
2019-03-21T14:14:00.542Z,34.78
2019-03-21T14:16:31.775Z,36.08
2019-03-21T14:19:03.261Z,38.42
2019-03-21T14:21:33.637Z,33.42
2019-03-21T14:24:04.333Z,36.08
2019-03-21T14:26:34.971Z,35.35
2019-03-21T14:29:12.528Z,39.10
2019-03-21T14:31:41.050Z,35.08
2019-03-21T14:34:11.875Z,30.27
2019-03-21T14:36:43.222Z,39.45
2019-03-21T14:39:13.544Z,30.50
2019-03-21T14:41:44.281Z,30.43
2019-03-21T14:44:15.634Z,34.03
2019-03-21T14:46:46.158Z,38.98
2019-03-21T14:49:17.093Z,42.80
2019-03-21T14:51:48.742Z,36.42
2019-03-21T14:54:19.478Z,32.65
2019-03-21T14:56:51.845Z,28.38
2019-03-21T14:59:22.478Z,35.43
2019-03-21T15:01:53.205Z,31.85
2019-03-21T15:04:24.656Z,38.05
2019-03-21T15:06:55.255Z,39.55
2019-03-21T15:09:26.850Z,30.12
2019-03-21T15:11:57.752Z,35.08
2019-03-21T15:14:31.935Z,36.20
2019-03-21T15:17:01.936Z,34.95
2019-03-21T15:19:32.482Z,28.55
2019-03-21T15:22:03.180Z,33.83
2019-03-21T15:24:36.053Z,24.25
2019-03-21T15:27:06.848Z,26.15
2019-03-21T15:29:37.417Z,32.23
2019-03-21T15:32:10.394Z,29.75
2019-03-21T15:34:42.163Z,28.30
2019-03-21T15:37:14.125Z,36.03
2019-03-21T15:39:45.100Z,24.67
2019-03-21T15:42:15.781Z,28.95
2019-03-21T15:44:46.515Z,43.17
2019-03-21T15:47:17.156Z,37.33
2019-03-21T15:49:47.919Z,46.25
2019-03-21T15:52:18.722Z,38.78
2019-03-21T15:54:50.760Z,38.35
2019-03-21T15:57:21.509Z,39.73
2019-03-21T15:59:52.586Z,50.08
2019-03-21T16:02:23.893Z,44.25
2019-03-21T16:04:54.934Z,31.85
2019-03-21T16:07:25.743Z,36.33
2019-03-21T16:09:56.362Z,35.43
2019-03-21T16:12:27.743Z,34.70
2019-03-21T16:14:58.478Z,29.23
2019-03-21T16:17:29.425Z,37.53
2019-03-21T16:20:00.046Z,32.50
2019-03-21T16:22:31.292Z,24.47
2019-03-21T16:25:03.455Z,39.33
2019-03-21T16:27:34.193Z,37.25
2019-03-21T16:30:07.500Z,42.25
2019-03-21T16:35:09.354Z,43.87
2019-03-21T16:37:39.887Z,31.52
2019-03-21T16:40:13.318Z,35.40
2019-03-21T16:42:45.251Z,47.50
2019-03-21T16:45:17.068Z,38.17
2019-03-21T16:47:48.958Z,36.93
2019-03-21T16:50:20.921Z,46.63
2019-03-21T16:52:51.959Z,44.45
2019-03-21T16:55:24.338Z,40.70
2019-03-21T16:57:56.903Z,43.80
2019-03-21T17:00:27.542Z,49.25
2019-03-21T17:02:58.150Z,47.80
2019-03-21T17:05:29.823Z,38.05
2019-03-21T17:08:10.616Z,48.15
2019-03-21T17:10:33.332Z,55.15
2019-03-21T17:13:06.491Z,58.38
2019-03-21T17:15:38.313Z,51.15
2019-03-21T17:18:09.669Z,50.38
2019-03-21T17:20:41.012Z,53.00
2019-03-21T17:23:11.912Z,48.35
2019-03-21T17:25:42.954Z,52.78
2019-03-21T17:28:15.942Z,50.60
2019-03-21T17:30:46.462Z,50.30
2019-03-21T17:33:17.102Z,49.88
2019-03-21T17:35:48.542Z,51.98
2019-03-21T17:38:19.275Z,50.28
2019-03-21T17:40:50.524Z,41.45
2019-03-21T17:43:23.616Z,48.45
2019-03-21T17:45:56.708Z,48.78
2019-03-21T17:48:28.986Z,41.88
2019-03-21T17:50:59.268Z,51.85
2019-03-21T17:53:31.044Z,44.48
2019-03-21T17:56:01.701Z,38.10
2019-03-21T17:58:32.410Z,42.38
2019-03-21T18:01:03.304Z,34.10
2019-03-21T18:03:34.182Z,33.53
2019-03-21T18:06:04.921Z,29.52
2019-03-21T18:08:35.534Z,34.20
2019-03-21T18:11:06.279Z,31.77
2019-03-21T18:13:39.567Z,29.52
2019-03-21T18:16:10.508Z,29.65
2019-03-21T18:18:41.650Z,28.77
2019-03-21T18:21:12.391Z,32.17
2019-03-21T18:23:42.734Z,35.25
2019-03-21T18:26:13.741Z,45.50
2019-03-21T18:28:44.985Z,39.67
2019-03-21T18:31:15.411Z,37.33
2019-03-21T18:33:46.144Z,31.87
2019-03-21T18:36:16.674Z,27.30
2019-03-21T18:38:58.702Z,27.58
2019-03-21T18:41:21.108Z,22.35
2019-03-21T18:43:51.839Z,28.25
2019-03-21T18:46:22.433Z,26.15
2019-03-21T18:48:53.715Z,29.48
2019-03-21T18:51:24.651Z,27.25
2019-03-21T18:53:56.882Z,25.57
2019-03-21T18:56:27.299Z,24.98
2019-03-21T18:58:57.987Z,26.55
2019-03-21T19:01:29.114Z,27.82
2019-03-21T19:04:00.568Z,24.45
2019-03-21T19:06:31.298Z,28.02
2019-03-21T19:09:02.044Z,25.50
2019-03-21T19:11:32.623Z,20.27
2019-03-21T19:14:04.011Z,25.25
2019-03-21T19:16:34.334Z,23.60
2019-03-21T19:19:05.911Z,21.50
2019-03-21T19:21:36.417Z,21.05
2019-03-21T19:24:07.555Z,31.25
2019-03-21T19:26:38.699Z,24.07
2019-03-21T19:29:11.811Z,20.17
2019-03-21T19:31:42.906Z,28.40
2019-03-21T19:34:13.558Z,21.12
2019-03-21T19:36:44.634Z,18.70
2019-03-21T19:39:15.118Z,17.02
2019-03-21T19:41:48.306Z,19.75
2019-03-21T19:44:19.664Z,21.55
2019-03-21T19:46:50.493Z,18.62
2019-03-21T19:49:21.183Z,16.70
2019-03-21T19:51:52.070Z,17.48
2019-03-21T19:54:22.694Z,18.50
2019-03-21T19:56:54.261Z,18.75
2019-03-21T19:59:24.568Z,16.75
2019-03-21T20:01:55.299Z,16.80
2019-03-21T20:04:26.035Z,18.32
2019-03-21T20:06:58.166Z,22.77
2019-03-21T20:09:28.396Z,19.73
2019-03-21T20:11:59.065Z,26.87
2019-03-21T20:14:30.793Z,18.90
2019-03-21T20:17:01.744Z,19.10
2019-03-21T20:19:32.476Z,18.55
2019-03-21T20:22:03.215Z,16.55
2019-03-21T20:24:33.658Z,16.97
2019-03-21T20:27:04.467Z,18.65
2019-03-21T20:29:35.203Z,25.32
2019-03-21T20:32:07.471Z,22.00
2019-03-21T20:34:37.798Z,21.05
2019-03-21T20:37:08.420Z,22.67
2019-03-21T20:39:39.154Z,21.07
2019-03-21T20:42:09.849Z,23.62
2019-03-21T20:44:41.286Z,24.92
2019-03-21T20:47:12.503Z,26.25
2019-03-21T20:49:45.466Z,23.92
2019-03-21T20:52:16.199Z,21.70
2019-03-21T20:54:46.915Z,20.92
2019-03-21T20:57:18.464Z,28.45
2019-03-21T20:59:49.221Z,24.85
2019-03-21T21:02:20.049Z,21.80
2019-03-21T21:04:50.678Z,23.67
2019-03-21T21:07:21.413Z,24.90
2019-03-21T21:09:52.147Z,29.02
2019-03-21T21:12:23.387Z,23.07
2019-03-21T21:14:54.201Z,23.90
2019-03-21T21:17:26.088Z,26.62
2019-03-21T21:19:57.148Z,24.55
2019-03-21T21:22:28.474Z,24.12
2019-03-21T21:24:59.215Z,26.33
2019-03-21T21:27:30.527Z,30.80
2019-03-21T21:30:01.386Z,23.95
2019-03-21T21:32:33.140Z,23.10
2019-03-21T21:35:04.499Z,26.05
2019-03-21T21:37:34.912Z,30.32
2019-03-21T21:40:07.657Z,28.07
2019-03-21T21:42:38.769Z,28.27
2019-03-21T21:45:11.387Z,27.02
2019-03-21T21:47:41.835Z,27.05
2019-03-21T21:50:18.555Z,31.12
2019-03-21T21:52:51.141Z,35.55
2019-03-21T21:55:22.943Z,26.02
2019-03-21T21:57:53.267Z,27.15
2019-03-21T22:00:26.459Z,17.98
2019-03-21T22:02:57.189Z,28.55
2019-03-21T22:05:29.695Z,27.27
2019-03-21T22:10:31.437Z,22.13
2019-03-21T22:13:02.570Z,20.12
2019-03-21T22:15:33.310Z,21.10
2019-03-21T22:18:04.038Z,26.95
2019-03-21T22:20:34.520Z,24.72
2019-03-21T22:23:05.406Z,26.33
2019-03-21T22:25:36.034Z,28.45
2019-03-21T22:28:10.017Z,33.88
2019-03-21T22:30:39.649Z,34.63
2019-03-21T22:33:10.623Z,38.70
2019-03-21T22:35:43.491Z,31.37
2019-03-21T22:38:15.538Z,39.70
2019-03-21T22:40:46.060Z,35.13
2019-03-21T22:43:16.692Z,38.02
2019-03-21T22:45:48.651Z,33.50
2019-03-21T22:48:18.863Z,34.48
2019-03-21T22:50:49.604Z,36.05
2019-03-21T22:53:20.336Z,31.55
2019-03-21T22:55:50.980Z,32.33
2019-03-21T22:58:31.363Z,32.55
2019-03-21T23:00:54.996Z,32.05
2019-03-21T23:03:25.522Z,35.25
2019-03-21T23:05:56.564Z,33.40
2019-03-21T23:08:28.006Z,38.25
2019-03-21T23:10:58.246Z,36.23
2019-03-21T23:13:29.275Z,35.48
2019-03-21T23:16:00.415Z,34.95
2019-03-21T23:18:32.375Z,33.40
2019-03-21T23:21:03.330Z,31.97
2019-03-21T23:23:33.940Z,37.80
2019-03-21T23:26:05.082Z,44.58
2019-03-21T23:28:36.435Z,51.75
2019-03-21T23:31:07.164Z,46.77
2019-03-21T23:33:38.205Z,50.40
2019-03-21T23:36:10.779Z,48.25
2019-03-21T23:38:41.271Z,51.55
2019-03-21T23:41:12.045Z,48.78
2019-03-21T23:43:44.004Z,38.92
2019-03-21T23:46:15.659Z,42.65
2019-03-21T23:48:46.062Z,47.45
2019-03-21T23:51:16.709Z,38.05
2019-03-21T23:53:48.465Z,35.70
2019-03-21T23:56:18.789Z,35.92
2019-03-21T23:58:49.522Z,36.75
